sensor_id;sensor_type;location;lat;lon;timestamp;P1;durP1;ratioP1;P2;durP2;ratioP2
32329;SDS011;18807;52.434;13.238;2023-01-19T00:03:38;18.88;;;9.80;;
32329;SDS011;18807;52.434;13.238;2023-01-19T00:11:14;15.45;;;9.93;;
32329;SDS011;18807;52.434;13.238;2023-01-19T00:18:49;19.73;;;11.30;;
32329;SDS011;18807;52.434;13.238;2023-01-19T00:26:25;22.02;;;10.50;;
32329;SDS011;18807;52.434;13.238;2023-01-19T00:33:59;25.58;;;11.27;;
32329;SDS011;18807;52.434;13.238;2023-01-19T00:41:34;23.25;;;10.50;;
32329;SDS011;18807;52.434;13.238;2023-01-19T00:49:25;20.63;;;9.32;;
32329;SDS011;18807;52.434;13.238;2023-01-19T01:04:35;19.08;;;9.45;;
32329;SDS011;18807;52.434;13.238;2023-01-19T01:12:10;16.98;;;9.77;;
32329;SDS011;18807;52.434;13.238;2023-01-19T01:19:45;21.90;;;9.73;;
32329;SDS011;18807;52.434;13.238;2023-01-19T01:27:21;13.40;;;8.18;;
32329;SDS011;18807;52.434;13.238;2023-01-19T01:34:55;15.02;;;8.23;;
32329;SDS011;18807;52.434;13.238;2023-01-19T01:50:06;17.83;;;9.98;;
32329;SDS011;18807;52.434;13.238;2023-01-19T01:57:45;18.67;;;9.60;;
32329;SDS011;18807;52.434;13.238;2023-01-19T02:05:25;21.95;;;9.13;;
32329;SDS011;18807;52.434;13.238;2023-01-19T02:13:03;21.40;;;10.02;;
32329;SDS011;18807;52.434;13.238;2023-01-19T02:20:52;22.73;;;11.55;;
32329;SDS011;18807;52.434;13.238;2023-01-19T02:28:39;22.38;;;10.48;;
32329;SDS011;18807;52.434;13.238;2023-01-19T02:36:15;18.20;;;9.48;;
32329;SDS011;18807;52.434;13.238;2023-01-19T02:43:54;15.98;;;8.90;;
32329;SDS011;18807;52.434;13.238;2023-01-19T02:51:30;16.10;;;9.13;;
32329;SDS011;18807;52.434;13.238;2023-01-19T02:59:09;21.27;;;9.50;;
32329;SDS011;18807;52.434;13.238;2023-01-19T03:06:50;18.55;;;9.77;;
32329;SDS011;18807;52.434;13.238;2023-01-19T03:14:30;19.00;;;8.77;;
32329;SDS011;18807;52.434;13.238;2023-01-19T03:22:08;21.52;;;9.23;;
32329;SDS011;18807;52.434;13.238;2023-01-19T03:29:48;15.90;;;7.97;;
32329;SDS011;18807;52.434;13.238;2023-01-19T03:37:25;20.13;;;9.65;;
32329;SDS011;18807;52.434;13.238;2023-01-19T03:45:03;22.73;;;10.98;;
32329;SDS011;18807;52.434;13.238;2023-01-19T03:52:38;23.27;;;11.40;;
32329;SDS011;18807;52.434;13.238;2023-01-19T04:07:48;20.48;;;10.82;;
32329;SDS011;18807;52.434;13.238;2023-01-19T04:15:23;18.10;;;10.20;;
32329;SDS011;18807;52.434;13.238;2023-01-19T04:22:58;23.27;;;10.65;;
32329;SDS011;18807;52.434;13.238;2023-01-19T04:30:35;21.30;;;11.27;;
32329;SDS011;18807;52.434;13.238;2023-01-19T04:38:08;22.20;;;10.38;;
32329;SDS011;18807;52.434;13.238;2023-01-19T04:45:44;19.55;;;9.85;;
32329;SDS011;18807;52.434;13.238;2023-01-19T04:53:18;17.73;;;10.35;;
32329;SDS011;18807;52.434;13.238;2023-01-19T05:00:53;17.92;;;10.13;;
32329;SDS011;18807;52.434;13.238;2023-01-19T05:08:26;20.80;;;9.88;;
32329;SDS011;18807;52.434;13.238;2023-01-19T05:23:37;23.60;;;10.77;;
32329;SDS011;18807;52.434;13.238;2023-01-19T05:31:13;24.02;;;12.07;;
32329;SDS011;18807;52.434;13.238;2023-01-19T05:38:50;20.48;;;10.80;;
32329;SDS011;18807;52.434;13.238;2023-01-19T05:46:27;18.15;;;9.43;;
32329;SDS011;18807;52.434;13.238;2023-01-19T05:54:01;19.55;;;9.90;;
32329;SDS011;18807;52.434;13.238;2023-01-19T06:01:36;19.20;;;9.38;;
32329;SDS011;18807;52.434;13.238;2023-01-19T06:09:11;15.40;;;9.23;;
32329;SDS011;18807;52.434;13.238;2023-01-19T06:16:46;18.38;;;9.38;;
32329;SDS011;18807;52.434;13.238;2023-01-19T06:24:21;21.38;;;10.48;;
32329;SDS011;18807;52.434;13.238;2023-01-19T06:31:57;20.17;;;9.68;;
32329;SDS011;18807;52.434;13.238;2023-01-19T06:39:31;18.10;;;9.57;;
32329;SDS011;18807;52.434;13.238;2023-01-19T06:47:07;20.63;;;10.88;;
32329;SDS011;18807;52.434;13.238;2023-01-19T06:54:47;16.42;;;9.80;;
32329;SDS011;18807;52.434;13.238;2023-01-19T07:02:22;18.10;;;9.60;;
32329;SDS011;18807;52.434;13.238;2023-01-19T07:09:59;15.93;;;8.65;;
32329;SDS011;18807;52.434;13.238;2023-01-19T07:17:34;16.13;;;9.13;;
32329;SDS011;18807;52.434;13.238;2023-01-19T07:25:08;17.80;;;9.80;;
32329;SDS011;18807;52.434;13.238;2023-01-19T07:32:44;15.32;;;9.43;;
32329;SDS011;18807;52.434;13.238;2023-01-19T07:40:18;16.83;;;9.38;;
32329;SDS011;18807;52.434;13.238;2023-01-19T07:47:56;14.73;;;8.88;;
32329;SDS011;18807;52.434;13.238;2023-01-19T07:55:30;22.90;;;9.23;;
32329;SDS011;18807;52.434;13.238;2023-01-19T08:10:40;17.10;;;8.65;;
32329;SDS011;18807;52.434;13.238;2023-01-19T08:25:49;16.98;;;8.85;;
32329;SDS011;18807;52.434;13.238;2023-01-19T08:33:24;17.70;;;8.52;;
32329;SDS011;18807;52.434;13.238;2023-01-19T08:40:58;18.27;;;8.95;;
32329;SDS011;18807;52.434;13.238;2023-01-19T08:48:33;20.15;;;9.20;;
32329;SDS011;18807;52.434;13.238;2023-01-19T08:56:11;17.23;;;9.45;;
32329;SDS011;18807;52.434;13.238;2023-01-19T09:03:47;12.93;;;6.95;;
32329;SDS011;18807;52.434;13.238;2023-01-19T09:11:21;15.30;;;7.57;;
32329;SDS011;18807;52.434;13.238;2023-01-19T09:18:56;11.00;;;6.38;;
32329;SDS011;18807;52.434;13.238;2023-01-19T09:26:30;8.35;;;6.03;;
32329;SDS011;18807;52.434;13.238;2023-01-19T09:34:05;11.82;;;6.18;;
32329;SDS011;18807;52.434;13.238;2023-01-19T09:41:40;9.70;;;6.30;;
32329;SDS011;18807;52.434;13.238;2023-01-19T09:49:22;13.18;;;6.88;;
32329;SDS011;18807;52.434;13.238;2023-01-19T09:57:04;11.55;;;6.50;;
32329;SDS011;18807;52.434;13.238;2023-01-19T10:04:44;9.48;;;5.80;;
32329;SDS011;18807;52.434;13.238;2023-01-19T10:12:34;12.75;;;6.40;;
32329;SDS011;18807;52.434;13.238;2023-01-19T10:20:21;11.68;;;6.80;;
32329;SDS011;18807;52.434;13.238;2023-01-19T10:27:58;11.30;;;6.95;;
32329;SDS011;18807;52.434;13.238;2023-01-19T10:35:34;12.40;;;6.57;;
32329;SDS011;18807;52.434;13.238;2023-01-19T10:51:12;11.20;;;6.25;;
32329;SDS011;18807;52.434;13.238;2023-01-19T10:58:46;14.98;;;7.03;;
32329;SDS011;18807;52.434;13.238;2023-01-19T11:06:23;10.75;;;6.50;;
32329;SDS011;18807;52.434;13.238;2023-01-19T11:14:03;14.50;;;7.78;;
32329;SDS011;18807;52.434;13.238;2023-01-19T11:21:43;10.52;;;6.38;;
32329;SDS011;18807;52.434;13.238;2023-01-19T11:29:19;10.65;;;6.85;;
32329;SDS011;18807;52.434;13.238;2023-01-19T11:36:57;16.25;;;7.05;;
32329;SDS011;18807;52.434;13.238;2023-01-19T11:44:32;12.80;;;6.63;;
32329;SDS011;18807;52.434;13.238;2023-01-19T11:52:11;12.23;;;7.25;;
32329;SDS011;18807;52.434;13.238;2023-01-19T11:59:50;15.10;;;8.23;;
32329;SDS011;18807;52.434;13.238;2023-01-19T12:07:27;11.33;;;6.90;;
32329;SDS011;18807;52.434;13.238;2023-01-19T12:15:05;13.55;;;7.20;;
32329;SDS011;18807;52.434;13.238;2023-01-19T12:22:46;12.45;;;7.20;;
32329;SDS011;18807;52.434;13.238;2023-01-19T12:30:26;12.55;;;6.75;;
32329;SDS011;18807;52.434;13.238;2023-01-19T12:38:05;9.70;;;6.97;;
32329;SDS011;18807;52.434;13.238;2023-01-19T12:45:56;11.95;;;6.90;;
32329;SDS011;18807;52.434;13.238;2023-01-19T12:53:32;12.15;;;6.53;;
32329;SDS011;18807;52.434;13.238;2023-01-19T13:01:12;12.80;;;6.93;;
32329;SDS011;18807;52.434;13.238;2023-01-19T13:08:56;12.73;;;7.55;;
32329;SDS011;18807;52.434;13.238;2023-01-19T13:16:50;12.43;;;7.35;;
32329;SDS011;18807;52.434;13.238;2023-01-19T13:24:43;14.63;;;7.95;;
32329;SDS011;18807;52.434;13.238;2023-01-19T13:32:39;12.30;;;7.63;;
32329;SDS011;18807;52.434;13.238;2023-01-19T13:40:16;14.57;;;7.32;;
32329;SDS011;18807;52.434;13.238;2023-01-19T13:47:55;11.13;;;7.05;;
32329;SDS011;18807;52.434;13.238;2023-01-19T13:55:32;11.52;;;7.43;;
32329;SDS011;18807;52.434;13.238;2023-01-19T14:03:14;10.65;;;6.68;;
32329;SDS011;18807;52.434;13.238;2023-01-19T14:11:00;15.23;;;8.15;;
32329;SDS011;18807;52.434;13.238;2023-01-19T14:18:35;14.73;;;8.73;;
32329;SDS011;18807;52.434;13.238;2023-01-19T14:34:30;15.15;;;9.07;;
32329;SDS011;18807;52.434;13.238;2023-01-19T14:42:12;18.67;;;9.38;;
32329;SDS011;18807;52.434;13.238;2023-01-19T14:49:49;16.98;;;10.00;;
32329;SDS011;18807;52.434;13.238;2023-01-19T14:57:24;20.00;;;10.00;;
32329;SDS011;18807;52.434;13.238;2023-01-19T15:04:58;18.88;;;10.13;;
32329;SDS011;18807;52.434;13.238;2023-01-19T15:12:34;19.13;;;9.30;;
32329;SDS011;18807;52.434;13.238;2023-01-19T15:20:10;20.58;;;9.32;;
32329;SDS011;18807;52.434;13.238;2023-01-19T15:27:49;19.45;;;11.13;;
32329;SDS011;18807;52.434;13.238;2023-01-19T15:35:23;18.98;;;10.18;;
32329;SDS011;18807;52.434;13.238;2023-01-19T15:42:59;17.75;;;10.07;;
32329;SDS011;18807;52.434;13.238;2023-01-19T15:50:33;16.48;;;10.30;;
32329;SDS011;18807;52.434;13.238;2023-01-19T15:58:11;18.05;;;10.40;;
32329;SDS011;18807;52.434;13.238;2023-01-19T16:05:45;20.58;;;11.05;;
32329;SDS011;18807;52.434;13.238;2023-01-19T16:13:20;17.93;;;9.93;;
32329;SDS011;18807;52.434;13.238;2023-01-19T16:20:54;17.88;;;10.40;;
32329;SDS011;18807;52.434;13.238;2023-01-19T16:28:29;17.83;;;9.45;;
32329;SDS011;18807;52.434;13.238;2023-01-19T16:36:15;16.80;;;9.13;;
32329;SDS011;18807;52.434;13.238;2023-01-19T16:51:44;20.17;;;10.52;;
32329;SDS011;18807;52.434;13.238;2023-01-19T16:59:22;18.05;;;10.52;;
32329;SDS011;18807;52.434;13.238;2023-01-19T17:06:58;20.67;;;12.43;;
32329;SDS011;18807;52.434;13.238;2023-01-19T17:14:33;22.17;;;11.90;;
32329;SDS011;18807;52.434;13.238;2023-01-19T17:22:08;21.60;;;12.43;;
32329;SDS011;18807;52.434;13.238;2023-01-19T17:29:44;19.67;;;10.73;;
32329;SDS011;18807;52.434;13.238;2023-01-19T17:37:21;31.25;;;15.43;;
32329;SDS011;18807;52.434;13.238;2023-01-19T17:44:56;16.25;;;9.13;;
32329;SDS011;18807;52.434;13.238;2023-01-19T17:52:30;15.90;;;9.23;;
32329;SDS011;18807;52.434;13.238;2023-01-19T18:00:06;15.00;;;8.73;;
32329;SDS011;18807;52.434;13.238;2023-01-19T18:07:41;19.67;;;10.38;;
32329;SDS011;18807;52.434;13.238;2023-01-19T18:15:16;14.00;;;9.23;;
32329;SDS011;18807;52.434;13.238;2023-01-19T18:22:50;19.80;;;10.93;;
32329;SDS011;18807;52.434;13.238;2023-01-19T18:38:00;16.50;;;9.23;;
32329;SDS011;18807;52.434;13.238;2023-01-19T18:45:36;23.52;;;10.73;;
32329;SDS011;18807;52.434;13.238;2023-01-19T18:53:11;16.55;;;9.75;;
32329;SDS011;18807;52.434;13.238;2023-01-19T19:00:46;13.93;;;9.05;;
32329;SDS011;18807;52.434;13.238;2023-01-19T19:08:22;17.27;;;8.88;;
32329;SDS011;18807;52.434;13.238;2023-01-19T19:16:02;16.92;;;9.85;;
32329;SDS011;18807;52.434;13.238;2023-01-19T19:23:36;18.80;;;11.52;;
32329;SDS011;18807;52.434;13.238;2023-01-19T19:31:14;23.70;;;11.73;;
32329;SDS011;18807;52.434;13.238;2023-01-19T19:38:49;18.45;;;10.57;;
32329;SDS011;18807;52.434;13.238;2023-01-19T19:46:26;24.23;;;12.23;;
32329;SDS011;18807;52.434;13.238;2023-01-19T19:54:00;21.05;;;11.73;;
32329;SDS011;18807;52.434;13.238;2023-01-19T20:09:10;16.85;;;9.52;;
32329;SDS011;18807;52.434;13.238;2023-01-19T20:16:47;16.05;;;9.65;;
32329;SDS011;18807;52.434;13.238;2023-01-19T20:24:21;18.30;;;10.23;;
32329;SDS011;18807;52.434;13.238;2023-01-19T20:39:30;15.43;;;9.50;;
32329;SDS011;18807;52.434;13.238;2023-01-19T20:47:07;17.48;;;10.68;;
32329;SDS011;18807;52.434;13.238;2023-01-19T20:54:42;23.63;;;11.82;;
32329;SDS011;18807;52.434;13.238;2023-01-19T21:02:17;15.13;;;9.47;;
32329;SDS011;18807;52.434;13.238;2023-01-19T21:09:51;16.88;;;9.45;;
32329;SDS011;18807;52.434;13.238;2023-01-19T21:25:01;16.60;;;9.80;;
32329;SDS011;18807;52.434;13.238;2023-01-19T21:32:37;15.90;;;9.80;;
32329;SDS011;18807;52.434;13.238;2023-01-19T21:40:11;14.52;;;8.02;;
32329;SDS011;18807;52.434;13.238;2023-01-19T21:55:22;14.85;;;8.68;;
32329;SDS011;18807;52.434;13.238;2023-01-19T22:02:57;16.67;;;10.00;;
32329;SDS011;18807;52.434;13.238;2023-01-19T22:10:36;15.82;;;9.45;;
32329;SDS011;18807;52.434;13.238;2023-01-19T22:18:13;17.08;;;8.88;;
32329;SDS011;18807;52.434;13.238;2023-01-19T22:25:47;16.55;;;9.18;;
32329;SDS011;18807;52.434;13.238;2023-01-19T22:40:57;16.67;;;9.10;;
32329;SDS011;18807;52.434;13.238;2023-01-19T22:48:32;16.17;;;8.85;;
32329;SDS011;18807;52.434;13.238;2023-01-19T22:56:10;12.75;;;8.52;;
32329;SDS011;18807;52.434;13.238;2023-01-19T23:03:46;16.20;;;9.05;;
32329;SDS011;18807;52.434;13.238;2023-01-19T23:11:21;15.38;;;9.23;;
32329;SDS011;18807;52.434;13.238;2023-01-19T23:18:58;15.75;;;8.40;;
32329;SDS011;18807;52.434;13.238;2023-01-19T23:26:32;14.07;;;8.40;;
32329;SDS011;18807;52.434;13.238;2023-01-19T23:34:11;13.02;;;7.90;;
32329;SDS011;18807;52.434;13.238;2023-01-19T23:41:46;16.75;;;9.10;;
32329;SDS011;18807;52.434;13.238;2023-01-19T23:49:22;15.77;;;8.55;;
32329;SDS011;18807;52.434;13.238;2023-01-19T23:56:56;17.98;;;9.43;;
